Main page
METAR-TAF:

METAR-TAF

Airports :

Midland Airpark

Midland, Texas, United States

latitude: 32-02-11N, longitude: 102-06-03W, elevation: 2801 ft

Current weather observation

The report was made 15 minutes ago, at 14:55 UTC
Wind 10 mph from the East
Temperature 66°F
Humidity 83%
Pressure 30.13 in. Hg
Visibility: 7 miles

METAR: KMDD 211455Z AUTO 10009KT 7SM 19/16 A3013 RMK AO2 T01870160

Time: 10:10 (15:10 UTC)


TAF: missing

Weather observations and forecasts of more than 4000 airports (METAR and TAF reports).

The available stations are represented by yellow and red dots on the map.

Hover mouse over dot to see the name of the station.

Then click to see weather observations and forecasts.

To change the map : click on the green buttons with a black cross to zoom in, on the green button with a dash to zoom out, or on the green arrows for adjacent maps.


METAR-TAF: